Time;durP1;ratioP1;P1;durP2;ratioP2;P2;SDS_P1;SDS_P2;PMS_P1;PMS_P2;Temp;Humidity;BMP_temperature;BMP_pressure;BME280_temperature;BME280_humidity;BME280_pressure;Samples;Min_cycle;Max_cycle;Signal;HPM_P1;HPM_P2
2023/05/11 00:02:25;;;;;;;18.10;6.40;;;;;;;8.85;47.50;99912.97;79755;1292;3018320;-65
2023/05/11 00:04:53;;;;;;;18.50;7.00;;;;;;;8.84;47.66;99915.79;79557;1298;3013844;-67
2023/05/11 00:07:20;;;;;;;15.90;6.80;;;;;;;8.79;47.77;99917.61;78516;1298;3049616;-64
2023/05/11 00:09:47;;;;;;;18.00;6.40;;;;;;;8.72;47.87;99918.77;79567;1306;3013428;-62
2023/05/11 00:12:13;;;;;;;18.50;7.10;;;;;;;8.68;48.28;99918.45;79762;1293;3011668;-65
2023/05/11 00:14:41;;;;;;;21.10;7.80;;;;;;;8.66;48.10;99918.73;78354;1298;3028482;-64
2023/05/11 00:17:09;;;;;;;13.50;5.40;;;;;;;8.63;48.33;99918.17;79539;1293;3013448;-63
2023/05/11 00:19:36;;;;;;;13.10;5.90;;;;;;;8.59;48.35;99915.21;79811;1292;3011627;-63
2023/05/11 00:22:04;;;;;;;14.40;6.60;;;;;;;8.60;48.67;99918.13;78324;1297;3049912;-61
2023/05/11 00:24:31;;;;;;;15.90;6.90;;;;;;;8.60;48.65;99916.02;79620;1299;3013409;-64
2023/05/11 00:26:58;;;;;;;13.10;5.70;;;;;;;8.53;48.92;99921.39;79601;1298;3011644;-66
2023/05/11 00:29:26;;;;;;;20.40;8.40;;;;;;;8.53;49.20;99922.11;78407;1294;3051418;-66
2023/05/11 00:31:52;;;;;;;15.50;7.90;;;;;;;8.47;49.76;99924.09;79643;1292;3013046;-68
2023/05/11 00:34:20;;;;;;;18.30;7.70;;;;;;;8.41;50.06;99921.55;79616;1298;3012786;-64
2023/05/11 00:36:48;;;;;;;14.90;6.70;;;;;;;8.39;50.21;99923.73;76514;1297;3026114;-64
2023/05/11 00:39:16;;;;;;;20.10;8.00;;;;;;;8.30;50.57;99925.67;79578;1298;3013470;-67
2023/05/11 00:41:43;;;;;;;26.00;9.80;;;;;;;8.29;50.40;99926.63;79697;1292;3013583;-64
2023/05/11 00:44:11;;;;;;;18.10;8.50;;;;;;;8.22;50.39;99927.10;78332;1298;3051649;-63
2023/05/11 00:46:38;;;;;;;21.40;8.00;;;;;;;8.21;50.63;99927.31;79640;1293;3013232;-64
2023/05/11 00:49:05;;;;;;;16.60;7.70;;;;;;;8.22;50.36;99922.88;79583;1293;3011519;-65
2023/05/11 00:51:35;;;;;;;14.20;6.60;;;;;;;8.26;50.06;99919.41;78317;1298;3050316;-65
2023/05/11 00:54:01;;;;;;;14.40;6.80;;;;;;;8.28;49.95;99920.55;79739;1299;3011681;-65
2023/05/11 00:56:28;;;;;;;15.10;7.00;;;;;;;8.26;49.65;99921.88;79603;1306;3013160;-64
2023/05/11 00:58:56;;;;;;;13.10;5.70;;;;;;;8.31;49.42;99919.21;78370;1298;3051213;-64
2023/05/11 01:01:23;;;;;;;12.60;6.40;;;;;;;8.37;48.99;99919.30;79872;1292;3013014;-61
2023/05/11 01:03:49;;;;;;;18.60;8.70;;;;;;;8.34;49.27;99922.75;79800;1293;3011674;-60
2023/05/11 01:06:25;;;;;;;28.00;11.00;;;;;;;8.31;49.54;99919.36;79110;1297;3028833;-62
2023/05/11 01:09:26;;;;;;;23.90;11.10;;;;;;;8.32;49.46;99919.51;79798;1298;3012778;-63
2023/05/11 01:12:15;;;;;;;23.90;11.90;;;;;;;8.32;49.42;99915.16;79485;1296;3051651;-65
2023/05/11 01:15:10;;;;;;;19.20;9.00;;;;;;;8.27;50.16;99918.51;79393;1298;3052537;-61
2023/05/11 01:17:39;;;;;;;16.70;8.20;;;;;;;8.20;50.11;99917.39;78545;1292;3069507;-64
2023/05/11 01:20:11;;;;;;;12.60;7.00;;;;;;;8.17;50.09;99915.80;79492;1297;3013570;-65
2023/05/11 01:23:01;;;;;;;14.80;6.60;;;;;;;8.20;49.68;99917.41;78360;1298;3048787;-63
2023/05/11 01:25:57;;;;;;;16.10;9.00;;;;;;;8.15;50.11;99914.98;78385;1297;3052783;-64
2023/05/11 01:28:56;;;;;;;17.30;9.50;;;;;;;8.13;49.94;99912.67;78406;1298;3051776;-64
2023/05/11 01:31:25;;;;;;;18.60;9.20;;;;;;;8.10;49.78;99914.36;78376;1297;3053978;-68
2023/05/11 01:33:55;;;;;;;17.90;8.70;;;;;;;8.04;50.17;99919.34;79594;1296;3013748;-64
2023/05/11 01:36:34;;;;;;;15.70;8.70;;;;;;;7.99;50.18;99917.46;78467;1298;3026607;-62
2023/05/11 01:39:04;;;;;;;19.30;9.10;;;;;;;8.03;49.83;99917.41;78346;1298;3052288;-64
2023/05/11 01:41:31;;;;;;;21.10;10.20;;;;;;;8.03;49.55;99912.18;79625;1292;3011789;-61
2023/05/11 01:44:03;;;;;;;16.20;8.10;;;;;;;8.04;49.34;99913.38;78966;1298;3011705;-64
2023/05/11 01:46:31;;;;;;;13.50;7.60;;;;;;;8.11;49.35;99910.29;79439;1293;3013449;-62
2023/05/11 01:49:08;;;;;;;17.10;8.30;;;;;;;8.08;49.32;99913.58;78180;1293;3050156;-64
2023/05/11 01:51:36;;;;;;;20.40;9.00;;;;;;;8.04;49.34;99914.77;78226;1298;3052952;-64
2023/05/11 01:54:06;;;;;;;16.00;7.90;;;;;;;8.04;49.47;99910.06;79367;1295;3013081;-66
2023/05/11 01:56:36;;;;;;;16.00;8.40;;;;;;;8.06;49.54;99909.27;78401;1298;3052235;-63
2023/05/11 02:00:09;;;;;;;16.40;8.00;;;;;;;8.06;49.53;99907.69;80160;1302;3013517;-63
2023/05/11 02:02:46;;;;;;;13.20;6.70;;;;;;;7.96;49.70;99913.38;78369;1302;3013600;-64
2023/05/11 02:05:22;;;;;;;11.40;6.50;;;;;;;7.92;50.00;99910.75;78794;1307;3013190;-64
2023/05/11 02:07:50;;;;;;;13.50;6.60;;;;;;;7.97;49.73;99914.90;77666;1302;3049669;-64
2023/05/11 02:10:17;;;;;;;13.80;7.40;;;;;;;8.02;49.54;99913.13;78992;1307;3021233;-62
2023/05/11 02:12:45;;;;;;;14.60;7.60;;;;;;;7.94;49.69;99907.51;77117;1307;5590975;-64
2023/05/11 02:15:13;;;;;;;15.30;7.50;;;;;;;7.95;49.76;99908.02;77674;1307;3050447;-64
2023/05/11 02:17:42;;;;;;;19.00;8.80;;;;;;;7.99;49.43;99908.70;79249;1298;3013911;-61
2023/05/11 02:20:09;;;;;;;13.80;7.30;;;;;;;8.04;49.37;99906.77;79195;1298;3011581;-66
2023/05/11 02:22:37;;;;;;;15.10;7.40;;;;;;;8.02;49.71;99909.65;78182;1298;3050028;-62
2023/05/11 02:25:04;;;;;;;12.40;6.70;;;;;;;8.00;49.46;99913.91;79300;1304;3011952;-64
2023/05/11 02:27:31;;;;;;;11.00;6.10;;;;;;;8.00;49.50;99908.12;79238;1302;3012980;-63
2023/05/11 02:30:01;;;;;;;17.20;7.10;;;;;;;8.00;49.38;99905.38;78033;1301;3051116;-67
2023/05/11 02:32:28;;;;;;;12.50;6.20;;;;;;;8.04;49.42;99903.77;79430;1299;3016091;-68
2023/05/11 02:35:08;;;;;;;12.10;5.40;;;;;;;8.08;49.18;99901.89;79418;1295;3011753;-64
2023/05/11 02:37:41;;;;;;;13.10;6.20;;;;;;;8.06;49.33;99906.15;78066;1298;3049840;-64
2023/05/11 02:40:12;;;;;;;10.80;5.90;;;;;;;8.10;49.08;99905.48;79441;1298;3013091;-65
2023/05/11 02:42:41;;;;;;;11.90;5.50;;;;;;;8.13;48.93;99910.56;78061;1300;3053412;-63
2023/05/11 02:45:10;;;;;;;13.20;5.40;;;;;;;8.10;49.02;99915.91;79440;1298;3013639;-66
2023/05/11 02:47:45;;;;;;;14.50;5.50;;;;;;;8.10;49.31;99918.00;78894;1295;3011687;-66
2023/05/11 02:50:12;;;;;;;11.50;5.50;;;;;;;8.16;49.06;99917.75;79444;1296;3012902;-64
2023/05/11 02:52:43;;;;;;;10.80;5.20;;;;;;;8.09;49.25;99916.67;78209;1298;3049930;-62
2023/05/11 02:55:10;;;;;;;15.60;6.40;;;;;;;8.12;49.31;99913.90;79578;1295;3011882;-64
2023/05/11 02:57:37;;;;;;;11.10;5.90;;;;;;;8.07;49.28;99921.10;79504;1295;3011641;-65
2023/05/11 03:00:09;;;;;;;15.80;6.90;;;;;;;8.04;49.58;99918.61;78294;1298;3052225;-66
2023/05/11 03:02:36;;;;;;;12.70;6.50;;;;;;;8.00;49.99;99924.39;79484;1298;3012864;-69
2023/05/11 03:05:05;;;;;;;14.90;6.00;;;;;;;7.97;49.91;99925.36;78899;1296;3011703;-64
2023/05/11 03:07:32;;;;;;;14.30;5.80;;;;;;;7.95;50.09;99922.66;79492;1300;3018889;-66
2023/05/11 03:10:00;;;;;;;12.00;5.70;;;;;;;7.92;50.33;99925.40;79441;1295;3013538;-67
2023/05/11 03:12:32;;;;;;;17.90;6.40;;;;;;;7.93;50.37;99928.49;78068;1300;3049561;-63
2023/05/11 03:15:00;;;;;;;14.30;6.00;;;;;;;7.93;50.05;99927.30;79344;1298;3011454;-64
2023/05/11 03:17:28;;;;;;;14.10;6.40;;;;;;;7.89;50.13;99933.19;78218;1295;3053508;-68
2023/05/11 03:19:57;;;;;;;13.40;6.30;;;;;;;7.92;50.00;99933.11;79518;1296;3013451;-61
2023/05/11 03:22:24;;;;;;;15.40;5.10;;;;;;;7.90;49.81;99931.41;79484;1295;3011869;-67
2023/05/11 03:24:52;;;;;;;12.90;4.80;;;;;;;7.88;49.92;99931.66;78350;1300;3049229;-66
2023/05/11 03:27:19;;;;;;;13.70;5.00;;;;;;;7.88;49.60;99937.43;79537;1300;3013538;-70
2023/05/11 03:29:46;;;;;;;13.60;5.50;;;;;;;7.88;49.55;99935.50;79329;1295;3013385;-68
2023/05/11 03:32:14;;;;;;;15.10;5.70;;;;;;;7.87;49.46;99935.02;78317;1298;3028577;-63
2023/05/11 03:34:41;;;;;;;12.10;6.10;;;;;;;7.90;49.09;99938.20;79374;1295;3013668;-68
2023/05/11 03:37:09;;;;;;;12.10;5.90;;;;;;;7.99;48.60;99936.27;79253;1295;3011557;-64
2023/05/11 03:39:38;;;;;;;15.90;6.30;;;;;;;8.07;48.13;99937.51;78075;1301;3050082;-64
2023/05/11 03:42:05;;;;;;;12.50;5.80;;;;;;;8.11;47.81;99937.71;79496;1301;3013865;-69
2023/05/11 03:44:32;;;;;;;12.70;6.30;;;;;;;8.19;47.72;99943.45;79305;1297;3013691;-69
2023/05/11 03:47:00;;;;;;;11.80;5.90;;;;;;;8.24;47.41;99951.26;78268;1301;3051190;-67
2023/05/11 03:49:27;;;;;;;23.00;9.40;;;;;;;8.27;47.08;99949.59;79467;1298;3019768;-66
2023/05/11 03:51:53;;;;;;;18.80;8.90;;;;;;;8.34;46.98;99945.08;79592;1295;3011634;-65
2023/05/11 03:54:22;;;;;;;19.90;9.60;;;;;;;8.42;46.25;99941.39;78295;1300;3026169;-72
2023/05/11 03:56:48;;;;;;;17.80;7.60;;;;;;;8.49;46.22;99941.98;79593;1301;3012630;-66
2023/05/11 03:59:15;;;;;;;17.40;7.90;;;;;;;8.55;45.84;99944.71;79389;1301;3011595;-68
2023/05/11 04:01:43;;;;;;;15.00;7.10;;;;;;;8.52;45.80;99947.30;78312;1296;3026371;-70
2023/05/11 04:04:10;;;;;;;20.50;8.00;;;;;;;8.62;45.82;99944.06;79373;1300;3012996;-65
2023/05/11 04:06:38;;;;;;;15.00;7.80;;;;;;;8.71;45.52;99947.50;79156;1298;3011559;-67
2023/05/11 04:09:13;;;;;;;17.10;7.90;;;;;;;8.65;45.70;99945.48;77948;1301;3049728;-66
2023/05/11 04:11:39;;;;;;;14.50;6.80;;;;;;;8.72;45.49;99953.36;79374;1300;3013248;-65
2023/05/11 04:14:06;;;;;;;12.50;5.90;;;;;;;8.80;45.40;99944.09;79346;1299;3011651;-66
2023/05/11 04:16:34;;;;;;;8.70;4.70;;;;;;;8.90;44.74;99951.15;78008;1298;3028568;-66
2023/05/11 04:19:01;;;;;;;16.80;5.90;;;;;;;8.94;44.91;99944.86;79412;1295;3014741;-64
2023/05/11 04:21:28;;;;;;;15.60;5.80;;;;;;;9.02;44.71;99950.27;79418;1295;3011979;-65
2023/05/11 04:23:55;;;;;;;16.30;5.80;;;;;;;9.08;44.37;99947.37;80328;1295;3050446;-64
2023/05/11 04:26:22;;;;;;;12.80;6.10;;;;;;;9.25;44.05;99953.02;79942;1298;3012649;-64
2023/05/11 04:28:49;;;;;;;14.80;5.50;;;;;;;9.31;44.11;99952.25;79963;1295;3012182;-65
2023/05/11 04:31:16;;;;;;;8.50;5.30;;;;;;;9.38;43.96;99953.14;78431;1301;3026225;-62
2023/05/11 04:33:43;;;;;;;12.90;5.00;;;;;;;9.40;43.66;99959.66;79450;1300;3013198;-62
2023/05/11 04:36:10;;;;;;;13.10;5.40;;;;;;;9.45;43.52;99957.34;79423;1294;3011690;-61
2023/05/11 04:38:38;;;;;;;12.80;5.00;;;;;;;9.47;43.85;99952.87;78115;1298;3028353;-63
2023/05/11 04:41:06;;;;;;;9.40;4.50;;;;;;;9.55;43.79;99959.10;79564;1295;3012750;-63
2023/05/11 04:43:32;;;;;;;8.60;4.40;;;;;;;9.59;43.54;99961.93;79320;1296;3013617;-64
2023/05/11 04:46:00;;;;;;;10.70;4.50;;;;;;;9.62;43.52;99963.52;78087;1300;3052093;-60
2023/05/11 04:48:28;;;;;;;11.40;3.70;;;;;;;9.68;43.56;99961.83;79463;1300;3013321;-63
2023/05/11 04:50:55;;;;;;;11.30;4.20;;;;;;;9.73;43.66;99961.23;79427;1295;3012846;-62
2023/05/11 04:53:25;;;;;;;7.30;3.50;;;;;;;9.79;43.44;99959.70;78156;1295;3048368;-59
2023/05/11 04:55:52;;;;;;;9.60;3.90;;;;;;;9.94;43.52;99954.59;79506;1300;3013376;-59
2023/05/11 04:58:18;;;;;;;9.50;4.00;;;;;;;10.06;42.66;99953.79;79275;1300;3011667;-59
2023/05/11 05:00:46;;;;;;;8.00;5.10;;;;;;;10.08;42.26;99955.10;78114;1301;3026337;-62
2023/05/11 05:03:13;;;;;;;7.80;4.30;;;;;;;10.12;42.77;99956.30;79354;1295;3013361;-61
2023/05/11 05:05:41;;;;;;;12.60;4.70;;;;;;;10.17;42.67;99957.81;79572;1294;3011639;-58
2023/05/11 05:08:09;;;;;;;12.00;4.80;;;;;;;10.24;42.58;99958.52;78057;1300;3049568;-59
2023/05/11 05:10:36;;;;;;;7.90;4.40;;;;;;;10.26;42.27;99953.52;79601;1296;3015132;-60
2023/05/11 05:13:02;;;;;;;10.00;4.90;;;;;;;10.43;42.87;99958.42;79272;1301;3011580;-62
2023/05/11 05:15:31;;;;;;;14.20;5.30;;;;;;;10.56;42.73;99961.27;78199;1299;3054865;-63
2023/05/11 05:17:58;;;;;;;10.70;5.70;;;;;;;10.67;42.67;99958.25;79453;1295;3013442;-64
2023/05/11 05:20:26;;;;;;;14.60;7.50;;;;;;;10.71;42.70;99963.98;79337;1295;3011836;-64
2023/05/11 05:22:54;;;;;;;12.90;6.30;;;;;;;10.74;42.75;99958.93;78227;1300;3049630;-64
2023/05/11 05:25:21;;;;;;;10.50;4.40;;;;;;;10.78;42.06;99962.19;79455;1294;3013026;-63
2023/05/11 05:27:48;;;;;;;9.10;4.10;;;;;;;10.75;41.04;99956.39;79368;1295;3011802;-61
2023/05/11 05:30:19;;;;;;;13.10;4.40;;;;;;;10.81;40.81;99961.20;78085;1299;3053445;-61
2023/05/11 05:32:47;;;;;;;9.80;3.70;;;;;;;10.90;40.47;99954.17;79633;1295;3015230;-60
2023/05/11 05:35:14;;;;;;;7.10;3.20;;;;;;;11.04;40.51;99956.09;79272;1295;3011987;-62
2023/05/11 05:37:43;;;;;;;5.00;2.80;;;;;;;11.14;40.23;99956.27;78245;1299;3049408;-63
2023/05/11 05:40:11;;;;;;;5.10;1.90;;;;;;;11.14;39.17;99957.31;79309;1298;3013547;-61
2023/05/11 05:42:44;;;;;;;8.70;2.80;;;;;;;11.27;39.57;99957.48;78303;1299;3053448;-59
2023/05/11 05:45:14;;;;;;;6.00;2.20;;;;;;;11.25;39.51;99961.58;79466;1297;3011521;-63
2023/05/11 05:47:42;;;;;;;4.30;2.20;;;;;;;11.24;39.86;99956.89;78384;1298;3028565;-64
2023/05/11 05:50:10;;;;;;;5.70;2.40;;;;;;;11.33;40.02;99954.81;79481;1296;3020644;-64
2023/05/11 05:52:37;;;;;;;5.60;2.80;;;;;;;11.42;40.66;99951.50;79749;1295;3011865;-63
2023/05/11 05:55:06;;;;;;;5.90;2.20;;;;;;;11.52;39.53;99951.83;78525;1300;3053221;-64
2023/05/11 05:57:33;;;;;;;6.70;1.70;;;;;;;11.62;39.53;99956.35;79557;1301;3012648;-61
2023/05/11 06:00:00;;;;;;;6.30;1.70;;;;;;;11.74;39.39;99960.95;79367;1301;3011568;-66
2023/05/11 06:02:29;;;;;;;5.80;2.10;;;;;;;11.77;39.16;99960.27;78246;1301;3067869;-65
2023/05/11 06:04:55;;;;;;;3.80;1.90;;;;;;;11.85;39.48;99955.26;79389;1299;3019556;-62
2023/05/11 06:07:22;;;;;;;4.30;1.80;;;;;;;11.83;39.62;99956.55;79399;1296;3011802;-65
2023/05/11 06:09:49;;;;;;;4.70;2.30;;;;;;;11.80;39.34;99956.55;78161;1294;3028509;-67
2023/05/11 06:12:17;;;;;;;3.30;1.70;;;;;;;11.89;39.17;99956.06;79582;1301;3013016;-62
2023/05/11 06:14:46;;;;;;;4.20;1.70;;;;;;;12.01;39.57;99955.75;79646;1300;3013503;-64
2023/05/11 06:17:14;;;;;;;6.50;2.20;;;;;;;12.08;38.89;99955.50;78223;1299;3067254;-63
2023/05/11 06:19:41;;;;;;;4.40;1.80;;;;;;;12.12;39.36;99957.92;79382;1301;3019370;-61
2023/05/11 06:22:08;;;;;;;3.80;1.80;;;;;;;12.15;39.14;99960.04;79678;1294;3013236;-62
2023/05/11 06:24:36;;;;;;;3.00;1.60;;;;;;;12.21;39.38;99959.47;78007;1296;3053205;-63
2023/05/11 06:27:03;;;;;;;5.90;1.90;;;;;;;12.32;39.55;99964.61;79523;1294;3014110;-61
2023/05/11 06:29:30;;;;;;;7.00;2.20;;;;;;;12.42;39.61;99962.41;79338;1301;3011769;-63
2023/05/11 06:31:58;;;;;;;4.30;2.00;;;;;;;12.44;39.92;99962.84;78119;1295;3068141;-62
2023/05/11 06:34:25;;;;;;;8.30;2.50;;;;;;;12.35;40.70;99969.86;79427;1295;3012865;-62
2023/05/11 06:36:51;;;;;;;4.90;2.20;;;;;;;12.33;41.31;99967.55;79382;1301;3011530;-63
2023/05/11 06:39:19;;;;;;;3.70;2.00;;;;;;;12.30;41.69;99962.98;78079;1299;3029013;-64
2023/05/11 06:41:46;;;;;;;5.80;2.10;;;;;;;12.46;41.66;99965.70;79323;1301;3013345;-64
2023/05/11 06:44:12;;;;;;;4.20;2.00;;;;;;;12.56;41.48;99960.69;79541;1301;3012014;-63
2023/05/11 06:46:44;;;;;;;7.60;2.00;;;;;;;12.76;41.18;99960.19;78163;1300;3070117;-63
2023/05/11 06:49:11;;;;;;;4.20;1.90;;;;;;;12.96;40.95;99958.09;79383;1300;3013073;-64
2023/05/11 06:51:38;;;;;;;5.80;2.00;;;;;;;13.11;40.53;99961.70;79661;1295;3011862;-64
2023/05/11 06:54:06;;;;;;;6.10;1.80;;;;;;;13.09;39.90;99962.36;78273;1301;3026494;-64
2023/05/11 06:56:34;;;;;;;2.90;1.70;;;;;;;13.03;39.79;99963.12;79549;1296;3011821;-65
2023/05/11 06:59:01;;;;;;;2.50;1.50;;;;;;;13.01;39.95;99959.50;79605;1301;3011664;-64
2023/05/11 07:01:29;;;;;;;5.90;1.70;;;;;;;13.04;39.97;99957.70;78288;1301;3069944;-65
2023/05/11 07:03:56;;;;;;;4.40;1.70;;;;;;;13.16;39.02;99959.12;79413;1295;3013549;-62
2023/05/11 07:06:22;;;;;;;7.00;1.50;;;;;;;13.36;38.81;99961.92;79517;1295;3011968;-64
2023/05/11 07:08:50;;;;;;;7.40;1.70;;;;;;;13.58;38.89;99961.93;78120;1299;3026404;-63
2023/05/11 07:11:17;;;;;;;7.50;1.70;;;;;;;13.75;38.35;99956.72;79450;1301;3013366;-64
2023/05/11 07:13:44;;;;;;;2.40;1.20;;;;;;;13.77;36.71;99959.98;79474;1300;3013146;-64
2023/05/11 07:16:13;;;;;;;4.20;1.40;;;;;;;13.76;35.45;99961.42;78168;1301;3068942;-63
2023/05/11 07:18:40;;;;;;;2.70;1.30;;;;;;;13.77;36.43;99958.89;79427;1295;3012948;-66
2023/05/11 07:21:06;;;;;;;1.30;1.00;;;;;;;13.72;35.64;99962.38;79402;1295;3011497;-65
2023/05/11 07:23:34;;;;;;;5.00;1.10;;;;;;;13.66;35.49;99962.30;78312;1301;3025039;-64
2023/05/11 07:26:03;;;;;;;2.00;0.90;;;;;;;13.70;34.79;99951.62;79685;1300;3019088;-63
2023/05/11 07:28:29;;;;;;;2.30;1.20;;;;;;;13.90;34.76;99956.48;79712;1300;3011777;-62
2023/05/11 07:30:57;;;;;;;1.30;0.80;;;;;;;13.85;33.86;99960.30;78268;1298;3068704;-63
2023/05/11 07:33:24;;;;;;;1.70;0.90;;;;;;;13.73;33.73;99964.29;79451;1298;3021173;-63
2023/05/11 07:35:50;;;;;;;2.00;0.70;;;;;;;13.58;34.03;99963.50;79319;1301;3013273;-66
2023/05/11 07:38:18;;;;;;;2.10;0.90;;;;;;;13.83;34.08;99959.37;78364;1296;3028754;-65
2023/05/11 07:40:45;;;;;;;1.30;0.90;;;;;;;14.01;33.59;99962.98;79616;1301;3012864;-63
2023/05/11 07:43:12;;;;;;;2.20;1.00;;;;;;;14.01;34.09;99964.85;79511;1300;3013621;-62
2023/05/11 07:45:39;;;;;;;3.70;0.70;;;;;;;14.07;33.99;99966.92;78476;1299;3025957;-66
2023/05/11 07:48:06;;;;;;;3.50;0.90;;;;;;;13.99;33.75;99964.33;79574;1295;3019483;-62
2023/05/11 07:50:33;;;;;;;4.40;1.00;;;;;;;14.02;33.89;99965.00;79496;1296;3012125;-63
2023/05/11 07:53:00;;;;;;;3.80;1.20;;;;;;;13.96;33.88;99969.61;78152;1301;3028510;-64
2023/05/11 07:55:29;;;;;;;5.00;1.30;;;;;;;14.03;33.65;99969.84;79548;1301;3013163;-65
2023/05/11 07:57:56;;;;;;;1.40;0.90;;;;;;;14.15;33.27;99965.90;79423;1301;3014027;-69
2023/05/11 08:00:24;;;;;;;2.90;0.80;;;;;;;14.17;32.91;99965.91;78305;1295;3069860;-67
2023/05/11 08:02:51;;;;;;;1.90;0.80;;;;;;;14.16;32.27;99961.29;79737;1296;3013664;-67
2023/05/11 08:05:18;;;;;;;2.70;0.80;;;;;;;14.21;32.30;99960.59;79562;1300;3013451;-64
2023/05/11 08:07:46;;;;;;;1.20;0.70;;;;;;;14.33;31.98;99961.47;78209;1299;3053091;-65
2023/05/11 08:10:13;;;;;;;1.50;0.70;;;;;;;14.41;31.93;99958.14;79334;1301;3012894;-62
2023/05/11 08:12:40;;;;;;;3.80;1.00;;;;;;;14.62;32.21;99956.17;79377;1300;3011471;-64
2023/05/11 08:15:08;;;;;;;2.10;0.70;;;;;;;14.86;31.95;99955.20;78134;1296;3027371;-62
2023/05/11 08:17:36;;;;;;;3.10;0.90;;;;;;;14.90;32.04;99949.84;79641;1295;3012759;-63
2023/05/11 08:20:06;;;;;;;3.30;1.10;;;;;;;15.03;31.93;99952.65;79522;1295;3011929;-63
2023/05/11 08:22:34;;;;;;;3.10;1.20;;;;;;;15.13;31.55;99950.86;78398;1295;3050957;-64
2023/05/11 08:25:02;;;;;;;5.00;0.90;;;;;;;15.28;31.50;99946.27;79434;1302;3013458;-65
2023/05/11 08:27:29;;;;;;;3.50;0.80;;;;;;;15.50;31.34;99942.87;79530;1295;3011537;-65
2023/05/11 08:29:57;;;;;;;0.90;0.70;;;;;;;15.67;30.89;99941.79;78212;1295;3067378;-66
2023/05/11 08:32:23;;;;;;;1.70;1.10;;;;;;;15.84;30.75;99942.89;79635;1295;3012798;-64
2023/05/11 08:34:50;;;;;;;3.50;1.00;;;;;;;16.21;30.89;99937.62;79560;1295;3011420;-63
2023/05/11 08:37:18;;;;;;;2.40;1.20;;;;;;;16.39;29.90;99944.19;78246;1295;3026579;-64
2023/05/11 08:39:44;;;;;;;2.30;1.00;;;;;;;16.14;29.23;99945.03;79499;1298;3013017;-65
2023/05/11 08:42:12;;;;;;;1.40;0.80;;;;;;;16.38;29.13;99940.58;79593;1300;3011557;-62
2023/05/11 08:44:42;;;;;;;4.90;1.00;;;;;;;16.54;28.75;99949.00;78155;1295;3068838;-64
2023/05/11 08:47:09;;;;;;;2.40;0.80;;;;;;;16.73;28.71;99947.78;79390;1296;3015466;-64
2023/05/11 08:49:36;;;;;;;1.30;0.80;;;;;;;16.65;28.68;99947.48;79389;1296;3013143;-66
2023/05/11 08:52:04;;;;;;;5.20;1.10;;;;;;;16.65;28.78;99949.38;78154;1300;3052748;-64
2023/05/11 08:54:31;;;;;;;3.00;0.90;;;;;;;16.32;29.03;99952.98;79699;1300;3019066;-65
2023/05/11 08:56:58;;;;;;;2.00;0.80;;;;;;;15.72;29.56;99959.83;79674;1295;3012022;-65
2023/05/11 08:59:27;;;;;;;2.60;1.20;;;;;;;15.47;30.02;99950.31;78041;1295;3068530;-62
2023/05/11 09:01:54;;;;;;;2.50;1.00;;;;;;;15.53;30.08;99949.41;79469;1295;3016003;-64
2023/05/11 09:04:21;;;;;;;6.10;1.10;;;;;;;15.66;30.01;99944.88;79343;1296;3011505;-65
2023/05/11 09:06:49;;;;;;;2.70;0.80;;;;;;;15.99;29.81;99944.76;78271;1295;3052395;-64
2023/05/11 09:09:17;;;;;;;2.50;0.70;;;;;;;16.38;29.19;99941.10;79566;1301;3013453;-64
2023/05/11 09:11:44;;;;;;;2.40;0.90;;;;;;;16.63;28.57;99942.52;79790;1296;3011912;-64
2023/05/11 09:14:12;;;;;;;3.10;0.80;;;;;;;16.81;28.27;99942.32;78198;1299;3069417;-64
2023/05/11 09:16:38;;;;;;;2.10;1.00;;;;;;;16.84;28.47;99934.82;79554;1296;3013230;-64
2023/05/11 09:19:06;;;;;;;1.00;0.70;;;;;;;17.18;28.06;99931.05;79380;1301;3011559;-64
2023/05/11 09:21:34;;;;;;;5.10;1.00;;;;;;;17.29;27.68;99929.90;78380;1301;3053384;-64
2023/05/11 09:24:01;;;;;;;1.40;0.80;;;;;;;16.95;28.18;99938.02;79748;1298;3013075;-61
2023/05/11 09:26:28;;;;;;;5.20;0.90;;;;;;;16.82;28.45;99940.45;79572;1298;3013170;-62
2023/05/11 09:28:57;;;;;;;1.00;0.80;;;;;;;16.46;28.67;99940.80;78422;1300;3028895;-63
2023/05/11 09:31:34;;;;;;;4.20;1.00;;;;;;;16.24;29.06;99933.81;79627;1295;3012799;-65
2023/05/11 09:34:20;;;;;;;4.10;1.00;;;;;;;16.14;29.07;99933.38;78359;1300;3049781;-65
2023/05/11 09:36:50;;;;;;;2.40;1.10;;;;;;;16.16;29.08;99938.88;78358;1300;3053004;-66
2023/05/11 09:39:19;;;;;;;3.70;1.00;;;;;;;16.20;29.03;99929.77;79708;1300;3013231;-65
2023/05/11 09:41:47;;;;;;;3.00;1.40;;;;;;;16.31;29.04;99930.52;78261;1302;3051959;-61
2023/05/11 09:44:15;;;;;;;2.30;1.00;;;;;;;16.10;29.35;99933.34;79498;1301;3018417;-66
2023/05/11 09:46:43;;;;;;;2.40;0.80;;;;;;;15.90;29.64;99937.65;79619;1296;3011502;-65
2023/05/11 09:49:10;;;;;;;3.30;1.00;;;;;;;15.72;29.60;99935.48;78350;1298;3056198;-63
2023/05/11 09:51:42;;;;;;;2.60;1.10;;;;;;;15.71;29.57;99931.92;79472;1300;3013020;-62
2023/05/11 09:54:17;;;;;;;1.20;0.80;;;;;;;15.53;29.37;99938.23;78576;1301;3049727;-64
2023/05/11 09:56:59;;;;;;;2.00;1.00;;;;;;;15.46;29.76;99930.67;78415;1301;3052580;-66
2023/05/11 09:59:37;;;;;;;1.60;0.80;;;;;;;15.71;29.76;99929.70;78785;1301;3053128;-65
2023/05/11 10:02:28;;;;;;;1.90;1.10;;;;;;;16.05;29.24;99924.89;78686;1296;3067610;-65
2023/05/11 10:04:57;;;;;;;4.00;0.80;;;;;;;16.39;28.99;99926.51;78224;1300;3052547;-64
2023/05/11 10:07:31;;;;;;;2.50;1.00;;;;;;;16.31;29.10;99933.64;79535;1296;3012690;-65
2023/05/11 10:10:00;;;;;;;2.60;1.10;;;;;;;16.01;29.32;99931.18;78267;1301;3048671;-67
2023/05/11 10:12:29;;;;;;;1.80;0.90;;;;;;;15.86;29.65;99937.54;79584;1300;3011690;-64
2023/05/11 10:15:05;;;;;;;4.50;1.00;;;;;;;15.54;29.78;99936.20;78878;1301;3011836;-63
2023/05/11 10:17:34;;;;;;;3.60;0.90;;;;;;;15.60;29.71;99930.27;78241;1298;3053260;-64
2023/05/11 10:20:02;;;;;;;3.00;0.90;;;;;;;15.58;29.84;99936.96;79360;1300;3014069;-64
2023/05/11 10:22:31;;;;;;;3.70;1.00;;;;;;;15.72;29.78;99941.45;78890;1296;3011774;-65
2023/05/11 10:24:58;;;;;;;5.40;1.00;;;;;;;15.72;29.66;99940.76;79655;1296;3013798;-64
2023/05/11 10:27:25;;;;;;;1.10;0.90;;;;;;;15.71;29.75;99935.48;79359;1296;3012850;-63
2023/05/11 10:29:53;;;;;;;2.70;1.10;;;;;;;15.80;29.27;99936.79;78735;1296;3052407;-65
2023/05/11 10:32:20;;;;;;;3.20;1.10;;;;;;;15.93;29.19;99938.31;79402;1301;3013312;-65
2023/05/11 10:34:47;;;;;;;1.50;0.80;;;;;;;15.77;29.22;99936.80;79603;1301;3012780;-64
2023/05/11 10:37:15;;;;;;;1.90;1.00;;;;;;;15.94;29.40;99930.11;78309;1301;3026479;-66
2023/05/11 10:39:43;;;;;;;2.50;1.20;;;;;;;16.07;29.30;99930.74;79607;1296;3016033;-65
2023/05/11 10:42:36;;;;;;;2.40;1.30;;;;;;;15.77;29.31;99931.34;79654;1295;3011595;-66
2023/05/11 10:45:09;;;;;;;1.10;0.90;;;;;;;15.94;29.15;99927.13;78098;1296;3054728;-67
2023/05/11 10:47:55;;;;;;;3.60;1.30;;;;;;;16.16;29.12;99928.41;79737;1300;3013218;-65
2023/05/11 10:50:31;;;;;;;2.50;1.10;;;;;;;16.25;29.18;99927.39;78602;1301;3053561;-64
2023/05/11 10:53:24;;;;;;;1.70;0.80;;;;;;;15.97;28.96;99937.69;78139;1299;3053651;-64
2023/05/11 10:56:24;;;;;;;1.10;0.80;;;;;;;15.80;29.31;99931.46;78225;1295;3069519;-65
2023/05/11 10:58:57;;;;;;;1.20;0.90;;;;;;;15.76;29.18;99934.43;78474;1301;3051349;-65
2023/05/11 11:01:39;;;;;;;1.70;1.00;;;;;;;15.74;29.13;99935.46;79476;1299;3011734;-64
2023/05/11 11:04:08;;;;;;;2.80;1.00;;;;;;;15.88;28.89;99940.96;78352;1298;3050323;-65
2023/05/11 11:06:38;;;;;;;2.10;1.10;;;;;;;16.24;28.64;99929.77;79539;1298;3011669;-64
2023/05/11 11:09:11;;;;;;;2.70;1.20;;;;;;;16.98;28.06;99929.66;78356;1299;3026771;-65
2023/05/11 11:11:41;;;;;;;5.30;0.90;;;;;;;17.40;27.25;99925.61;79692;1299;3012046;-65
2023/05/11 11:14:09;;;;;;;6.90;1.00;;;;;;;17.83;26.60;99928.45;78271;1295;3053085;-66
2023/05/11 11:16:36;;;;;;;1.80;0.90;;;;;;;17.98;26.56;99925.94;79546;1302;3013577;-65
2023/05/11 11:19:30;;;;;;;2.30;1.10;;;;;;;18.17;26.21;99922.80;79481;1301;3013394;-66
2023/05/11 11:21:59;;;;;;;3.00;1.20;;;;;;;18.22;26.00;99930.00;78316;1295;3051394;-65
2023/05/11 11:24:35;;;;;;;2.60;1.30;;;;;;;17.76;26.32;99933.48;79586;1302;3014613;-66
2023/05/11 11:27:07;;;;;;;1.60;0.80;;;;;;;17.51;26.67;99933.89;78542;1298;3052248;-66
2023/05/11 11:29:38;;;;;;;1.90;1.00;;;;;;;17.35;26.78;99934.48;79534;1295;3011669;-64